SCU weather

Antonio Maceo International Airport
Santiago, Santiago de Cuba, Cuba

Public forecast

Using degrees Celsius for public forecast. Weather courtesy of forecast.io.

METAR (pilot weather report)

Retrieved 2019/04/18 23:50 UTC (26 minutes ago):

MUCU 182350Z 20005KT 170V230 9000 SCT020 27/20 Q1014

TAF (pilot weather forecast)

Forecast is more than 12 hours old.

Retrieved 2019/04/18 00:03 UTC (1 day ago):

TAF MUCU 182300Z 1900/1924 19008KT 9000 SCT020 BECMG 1901/1903 VRB03KT BECMG 1915/1917 18010KT TEMPO 1918/1924 5000 SHRA FEW018CB BKN020